sensor_id;sensor_type;location;lat;lon;timestamp;pressure;altitude;pressure_sealevel;temperature;humidity
71344;BME280;59146;43.850;25.948;2023-03-19T00:00:39;101933.50;;;8.17;62.87
71344;BME280;59146;43.850;25.948;2023-03-19T00:03:05;101946.28;;;8.24;63.08
71344;BME280;59146;43.850;25.948;2023-03-19T00:05:30;101943.53;;;8.30;62.21
71344;BME280;59146;43.850;25.948;2023-03-19T00:07:56;101859.28;;;7.73;62.52
71344;BME280;59146;43.850;25.948;2023-03-19T00:10:21;101886.41;;;7.95;62.65
71344;BME280;59146;43.850;25.948;2023-03-19T00:12:46;101899.25;;;8.01;63.09
71344;BME280;59146;43.850;25.948;2023-03-19T00:15:12;101934.25;;;8.20;63.04
71344;BME280;59146;43.850;25.948;2023-03-19T00:17:39;101893.84;;;8.07;62.94
71344;BME280;59146;43.850;25.948;2023-03-19T00:20:05;101869.84;;;7.97;63.03
71344;BME280;59146;43.850;25.948;2023-03-19T00:22:30;101885.97;;;8.10;63.75
71344;BME280;59146;43.850;25.948;2023-03-19T00:24:56;101919.25;;;8.31;64.01
71344;BME280;59146;43.850;25.948;2023-03-19T00:27:21;101874.84;;;8.05;64.88
71344;BME280;59146;43.850;25.948;2023-03-19T00:29:47;101869.00;;;7.97;64.27
71344;BME280;59146;43.850;25.948;2023-03-19T00:32:12;101872.06;;;8.11;63.93
71344;BME280;59146;43.850;25.948;2023-03-19T00:34:38;101871.16;;;8.12;63.51
71344;BME280;59146;43.850;25.948;2023-03-19T00:37:04;101813.19;;;7.78;63.90
71344;BME280;59146;43.850;25.948;2023-03-19T00:39:29;101836.34;;;7.87;63.34
71344;BME280;59146;43.850;25.948;2023-03-19T00:41:55;101865.41;;;8.01;64.16
71344;BME280;59146;43.850;25.948;2023-03-19T00:44:20;101925.06;;;8.39;65.86
71344;BME280;59146;43.850;25.948;2023-03-19T00:46:45;101909.03;;;8.22;65.38
71344;BME280;59146;43.850;25.948;2023-03-19T00:49:11;101913.69;;;8.13;65.33
71344;BME280;59146;43.850;25.948;2023-03-19T00:51:36;101884.66;;;7.95;65.01
71344;BME280;59146;43.850;25.948;2023-03-19T00:54:02;101851.56;;;7.70;65.52
71344;BME280;59146;43.850;25.948;2023-03-19T00:56:27;101899.13;;;8.06;65.74
71344;BME280;59146;43.850;25.948;2023-03-19T00:58:55;101841.09;;;7.71;66.08
71344;BME280;59146;43.850;25.948;2023-03-19T01:01:21;101888.09;;;7.96;66.40
71344;BME280;59146;43.850;25.948;2023-03-19T01:03:46;101847.34;;;7.66;66.74
71344;BME280;59146;43.850;25.948;2023-03-19T01:06:12;101906.16;;;8.02;66.71
71344;BME280;59146;43.850;25.948;2023-03-19T01:08:38;101889.13;;;7.90;66.85
71344;BME280;59146;43.850;25.948;2023-03-19T01:11:09;101906.97;;;8.04;67.11
71344;BME280;59146;43.850;25.948;2023-03-19T01:13:36;101891.69;;;7.92;67.50
71344;BME280;59146;43.850;25.948;2023-03-19T01:16:02;101882.38;;;7.83;67.46
71344;BME280;59146;43.850;25.948;2023-03-19T01:18:27;101909.06;;;7.90;68.01
71344;BME280;59146;43.850;25.948;2023-03-19T01:20:53;101822.06;;;7.39;68.03
71344;BME280;59146;43.850;25.948;2023-03-19T01:23:18;101848.66;;;7.48;68.29
71344;BME280;59146;43.850;25.948;2023-03-19T01:25:43;101917.84;;;7.87;68.16
71344;BME280;59146;43.850;25.948;2023-03-19T01:28:09;101874.91;;;7.73;67.81
71344;BME280;59146;43.850;25.948;2023-03-19T01:30:35;101909.94;;;7.90;67.49
71344;BME280;59146;43.850;25.948;2023-03-19T01:33:00;101907.28;;;7.93;67.68
71344;BME280;59146;43.850;25.948;2023-03-19T01:35:26;101856.00;;;7.65;67.79
71344;BME280;59146;43.850;25.948;2023-03-19T01:37:51;101847.53;;;7.58;67.38
71344;BME280;59146;43.850;25.948;2023-03-19T01:40:16;101870.63;;;7.69;66.91
71344;BME280;59146;43.850;25.948;2023-03-19T01:42:56;101859.69;;;7.58;67.56
71344;BME280;59146;43.850;25.948;2023-03-19T01:45:38;101854.69;;;7.50;67.73
71344;BME280;59146;43.850;25.948;2023-03-19T01:48:04;101844.25;;;7.52;67.41
71344;BME280;59146;43.850;25.948;2023-03-19T01:50:39;101859.53;;;7.64;67.52
71344;BME280;59146;43.850;25.948;2023-03-19T01:53:08;101884.97;;;7.83;67.66
71344;BME280;59146;43.850;25.948;2023-03-19T01:55:34;101833.06;;;7.50;67.71
71344;BME280;59146;43.850;25.948;2023-03-19T01:58:00;101822.56;;;7.53;67.68
71344;BME280;59146;43.850;25.948;2023-03-19T02:00:27;101891.00;;;7.85;67.81
71344;BME280;59146;43.850;25.948;2023-03-19T02:02:57;101855.59;;;7.49;67.95
71344;BME280;59146;43.850;25.948;2023-03-19T02:05:25;101873.34;;;7.66;68.74
71344;BME280;59146;43.850;25.948;2023-03-19T02:07:55;101825.66;;;7.35;68.80
71344;BME280;59146;43.850;25.948;2023-03-19T02:10:22;101847.03;;;7.44;69.11
71344;BME280;59146;43.850;25.948;2023-03-19T02:12:48;101881.84;;;7.72;69.09
71344;BME280;59146;43.850;25.948;2023-03-19T02:15:14;101878.72;;;7.58;69.41
71344;BME280;59146;43.850;25.948;2023-03-19T02:17:41;101907.56;;;7.83;69.01
71344;BME280;59146;43.850;25.948;2023-03-19T02:20:12;101816.31;;;7.28;69.17
71344;BME280;59146;43.850;25.948;2023-03-19T02:23:03;101909.63;;;7.70;68.61
71344;BME280;59146;43.850;25.948;2023-03-19T02:26:22;101918.72;;;7.54;68.72
71344;BME280;59146;43.850;25.948;2023-03-19T02:28:22;101841.84;;;7.10;68.81
71344;BME280;59146;43.850;25.948;2023-03-19T02:30:48;101896.53;;;7.41;69.76
71344;BME280;59146;43.850;25.948;2023-03-19T02:33:16;101826.66;;;6.95;69.63
71344;BME280;59146;43.850;25.948;2023-03-19T02:35:46;101915.66;;;7.39;70.24
71344;BME280;59146;43.850;25.948;2023-03-19T02:38:13;101931.06;;;7.46;69.30
71344;BME280;59146;43.850;25.948;2023-03-19T02:40:46;101859.31;;;7.05;69.53
71344;BME280;59146;43.850;25.948;2023-03-19T02:43:13;101897.84;;;7.23;70.18
71344;BME280;59146;43.850;25.948;2023-03-19T02:45:39;101873.03;;;7.10;70.25
71344;BME280;59146;43.850;25.948;2023-03-19T02:48:05;101839.94;;;6.85;70.39
71344;BME280;59146;43.850;25.948;2023-03-19T02:50:31;101886.94;;;7.08;70.98
71344;BME280;59146;43.850;25.948;2023-03-19T02:52:56;101893.09;;;7.05;71.22
71344;BME280;59146;43.850;25.948;2023-03-19T02:55:21;101860.56;;;6.89;70.85
71344;BME280;59146;43.850;25.948;2023-03-19T02:57:47;101913.47;;;7.22;69.74
71344;BME280;59146;43.850;25.948;2023-03-19T03:00:13;101813.75;;;6.57;69.33
71344;BME280;59146;43.850;25.948;2023-03-19T03:02:38;101855.75;;;6.74;68.23
71344;BME280;59146;43.850;25.948;2023-03-19T03:05:05;101902.88;;;6.94;67.90
71344;BME280;59146;43.850;25.948;2023-03-19T03:07:31;101855.44;;;6.51;68.38
71344;BME280;59146;43.850;25.948;2023-03-19T03:09:57;101890.59;;;6.64;68.82
71344;BME280;59146;43.850;25.948;2023-03-19T03:12:22;101907.81;;;6.68;69.38
71344;BME280;59146;43.850;25.948;2023-03-19T03:14:48;101855.63;;;6.42;69.12
71344;BME280;59146;43.850;25.948;2023-03-19T03:17:13;101907.75;;;6.71;69.41
71344;BME280;59146;43.850;25.948;2023-03-19T03:19:39;101906.03;;;6.72;69.43
71344;BME280;59146;43.850;25.948;2023-03-19T03:22:05;101853.84;;;6.44;69.42
71344;BME280;59146;43.850;25.948;2023-03-19T03:24:30;101905.16;;;6.71;69.32
71344;BME280;59146;43.850;25.948;2023-03-19T03:26:56;101897.41;;;6.70;69.29
71344;BME280;59146;43.850;25.948;2023-03-19T03:29:21;101898.13;;;6.76;68.66
71344;BME280;59146;43.850;25.948;2023-03-19T03:31:47;101903.28;;;6.78;68.56
71344;BME280;59146;43.850;25.948;2023-03-19T03:34:12;101922.13;;;6.86;68.44
71344;BME280;59146;43.850;25.948;2023-03-19T03:36:38;101885.47;;;6.61;68.33
71344;BME280;59146;43.850;25.948;2023-03-19T03:39:03;101892.34;;;6.64;68.36
71344;BME280;59146;43.850;25.948;2023-03-19T03:41:29;101911.97;;;6.75;68.60
71344;BME280;59146;43.850;25.948;2023-03-19T03:43:54;101926.47;;;6.85;68.92
71344;BME280;59146;43.850;25.948;2023-03-19T03:46:20;101852.88;;;6.48;67.94
71344;BME280;59146;43.850;25.948;2023-03-19T03:48:45;101935.97;;;6.86;68.48
71344;BME280;59146;43.850;25.948;2023-03-19T03:51:13;101856.81;;;6.27;68.73
71344;BME280;59146;43.850;25.948;2023-03-19T03:53:39;101872.06;;;6.43;69.07
71344;BME280;59146;43.850;25.948;2023-03-19T03:56:05;101915.53;;;6.71;68.90
71344;BME280;59146;43.850;25.948;2023-03-19T03:58:31;101913.84;;;6.69;68.72
71344;BME280;59146;43.850;25.948;2023-03-19T04:00:56;101887.41;;;6.53;68.84
71344;BME280;59146;43.850;25.948;2023-03-19T04:03:22;101855.91;;;6.30;68.69
71344;BME280;59146;43.850;25.948;2023-03-19T04:05:48;101892.81;;;6.43;69.31
71344;BME280;59146;43.850;25.948;2023-03-19T04:08:13;101857.09;;;6.15;69.13
71344;BME280;59146;43.850;25.948;2023-03-19T04:10:40;101928.03;;;6.54;69.37
71344;BME280;59146;43.850;25.948;2023-03-19T04:13:07;101913.47;;;6.49;69.92
71344;BME280;59146;43.850;25.948;2023-03-19T04:15:33;101936.63;;;6.56;69.93
71344;BME280;59146;43.850;25.948;2023-03-19T04:17:59;101912.91;;;6.34;70.40
71344;BME280;59146;43.850;25.948;2023-03-19T04:20:25;101933.44;;;6.43;71.05
71344;BME280;59146;43.850;25.948;2023-03-19T04:22:51;101884.06;;;6.07;71.33
71344;BME280;59146;43.850;25.948;2023-03-19T04:25:17;101880.75;;;6.00;71.35
71344;BME280;59146;43.850;25.948;2023-03-19T04:27:43;101950.75;;;6.43;71.72
71344;BME280;59146;43.850;25.948;2023-03-19T04:30:09;101903.91;;;6.09;71.80
71344;BME280;59146;43.850;25.948;2023-03-19T04:32:35;101921.78;;;6.23;71.68
71344;BME280;59146;43.850;25.948;2023-03-19T04:35:01;101917.44;;;6.23;71.55
71344;BME280;59146;43.850;25.948;2023-03-19T04:37:27;101939.78;;;6.30;71.64
71344;BME280;59146;43.850;25.948;2023-03-19T04:39:52;101962.72;;;6.50;71.40
71344;BME280;59146;43.850;25.948;2023-03-19T04:42:18;101937.84;;;6.40;71.57
71344;BME280;59146;43.850;25.948;2023-03-19T04:44:44;101933.50;;;6.42;71.40
71344;BME280;59146;43.850;25.948;2023-03-19T04:47:09;101871.06;;;6.08;71.06
71344;BME280;59146;43.850;25.948;2023-03-19T04:49:35;101848.00;;;5.95;70.95
71344;BME280;59146;43.850;25.948;2023-03-19T04:52:01;101955.22;;;6.38;72.05
71344;BME280;59146;43.850;25.948;2023-03-19T04:54:26;101970.47;;;6.52;72.20
71344;BME280;59146;43.850;25.948;2023-03-19T04:56:52;101982.31;;;6.65;71.52
71344;BME280;59146;43.850;25.948;2023-03-19T04:59:18;101895.06;;;6.18;71.86
71344;BME280;59146;43.850;25.948;2023-03-19T05:01:44;101916.16;;;6.44;71.29
71344;BME280;59146;43.850;25.948;2023-03-19T05:04:09;101931.13;;;6.71;71.25
71344;BME280;59146;43.850;25.948;2023-03-19T05:06:35;101895.47;;;6.39;71.33
71344;BME280;59146;43.850;25.948;2023-03-19T05:09:02;101945.69;;;6.78;71.20
71344;BME280;59146;43.850;25.948;2023-03-19T05:11:28;101907.06;;;6.63;71.19
71344;BME280;59146;43.850;25.948;2023-03-19T05:13:53;101929.72;;;6.95;70.90
71344;BME280;59146;43.850;25.948;2023-03-19T05:16:18;101936.31;;;7.08;70.26
71344;BME280;59146;43.850;25.948;2023-03-19T05:18:44;101896.94;;;6.89;69.77
71344;BME280;59146;43.850;25.948;2023-03-19T05:21:10;101940.19;;;7.29;69.30
71344;BME280;59146;43.850;25.948;2023-03-19T05:23:36;101941.72;;;7.36;68.94
71344;BME280;59146;43.850;25.948;2023-03-19T05:26:02;101845.25;;;6.79;68.51
71344;BME280;59146;43.850;25.948;2023-03-19T05:28:27;101950.72;;;7.58;68.11
71344;BME280;59146;43.850;25.948;2023-03-19T05:30:53;101948.38;;;7.79;67.69
71344;BME280;59146;43.850;25.948;2023-03-19T05:33:18;101943.19;;;7.79;67.37
71344;BME280;59146;43.850;25.948;2023-03-19T05:35:44;101934.56;;;7.44;67.85
71344;BME280;59146;43.850;25.948;2023-03-19T05:38:10;101929.84;;;7.59;67.98
71344;BME280;59146;43.850;25.948;2023-03-19T05:40:35;101897.25;;;7.48;67.28
71344;BME280;59146;43.850;25.948;2023-03-19T05:43:01;101915.00;;;7.64;66.69
71344;BME280;59146;43.850;25.948;2023-03-19T05:45:26;101957.66;;;7.57;67.39
71344;BME280;59146;43.850;25.948;2023-03-19T05:47:52;101901.59;;;7.12;68.09
71344;BME280;59146;43.850;25.948;2023-03-19T05:50:18;101910.13;;;7.17;68.30
71344;BME280;59146;43.850;25.948;2023-03-19T05:52:43;101908.28;;;7.22;69.04
71344;BME280;59146;43.850;25.948;2023-03-19T05:55:09;101952.19;;;7.68;68.18
71344;BME280;59146;43.850;25.948;2023-03-19T05:57:35;101901.03;;;7.68;67.22
71344;BME280;59146;43.850;25.948;2023-03-19T06:00:01;101924.19;;;8.08;66.35
71344;BME280;59146;43.850;25.948;2023-03-19T06:02:26;101950.06;;;8.45;65.53
71344;BME280;59146;43.850;25.948;2023-03-19T06:04:51;101889.19;;;7.89;65.63
71344;BME280;59146;43.850;25.948;2023-03-19T06:07:17;101879.09;;;8.08;65.43
71344;BME280;59146;43.850;25.948;2023-03-19T06:09:42;101924.16;;;8.40;64.65
71344;BME280;59146;43.850;25.948;2023-03-19T06:12:08;101885.47;;;7.65;66.22
71344;BME280;59146;43.850;25.948;2023-03-19T06:14:33;101963.13;;;8.13;66.00
71344;BME280;59146;43.850;25.948;2023-03-19T06:16:59;101962.91;;;8.51;65.24
71344;BME280;59146;43.850;25.948;2023-03-19T06:19:24;101898.69;;;8.21;64.81
71344;BME280;59146;43.850;25.948;2023-03-19T06:21:50;101942.19;;;8.46;64.79
71344;BME280;59146;43.850;25.948;2023-03-19T06:24:16;101922.25;;;8.16;65.65
71344;BME280;59146;43.850;25.948;2023-03-19T06:26:41;101846.47;;;7.96;65.31
71344;BME280;59146;43.850;25.948;2023-03-19T06:29:07;101809.50;;;7.85;64.88
71344;BME280;59146;43.850;25.948;2023-03-19T06:31:32;101957.00;;;8.73;65.07
71344;BME280;59146;43.850;25.948;2023-03-19T06:33:58;101959.78;;;8.97;64.61
71344;BME280;59146;43.850;25.948;2023-03-19T06:36:23;101928.38;;;9.01;64.40
71344;BME280;59146;43.850;25.948;2023-03-19T06:38:49;101922.00;;;9.10;63.25
71344;BME280;59146;43.850;25.948;2023-03-19T06:41:15;101955.69;;;9.68;62.31
71344;BME280;59146;43.850;25.948;2023-03-19T06:43:40;101946.41;;;9.59;62.24
71344;BME280;59146;43.850;25.948;2023-03-19T06:46:07;101898.94;;;9.24;62.45
71344;BME280;59146;43.850;25.948;2023-03-19T06:48:33;101905.47;;;9.37;62.04
71344;BME280;59146;43.850;25.948;2023-03-19T06:50:59;101900.97;;;9.42;60.77
71344;BME280;59146;43.850;25.948;2023-03-19T06:53:26;101817.44;;;8.93;60.82
71344;BME280;59146;43.850;25.948;2023-03-19T06:55:52;101962.78;;;9.89;61.02
71344;BME280;59146;43.850;25.948;2023-03-19T06:58:17;101927.41;;;9.82;60.81
71344;BME280;59146;43.850;25.948;2023-03-19T07:00:43;101948.53;;;10.24;59.45
71344;BME280;59146;43.850;25.948;2023-03-19T07:03:09;101915.81;;;10.37;57.63
71344;BME280;59146;43.850;25.948;2023-03-19T07:05:35;101948.91;;;10.83;56.68
71344;BME280;59146;43.850;25.948;2023-03-19T07:08:01;101966.91;;;10.90;58.19
71344;BME280;59146;43.850;25.948;2023-03-19T07:10:27;101891.31;;;11.06;56.06
71344;BME280;59146;43.850;25.948;2023-03-19T07:12:52;101963.59;;;11.50;55.33
71344;BME280;59146;43.850;25.948;2023-03-19T07:15:18;101962.97;;;11.24;56.07
71344;BME280;59146;43.850;25.948;2023-03-19T07:17:46;101955.63;;;11.75;54.86
71344;BME280;59146;43.850;25.948;2023-03-19T07:20:12;101939.66;;;11.81;55.75
71344;BME280;59146;43.850;25.948;2023-03-19T07:22:37;101961.59;;;12.17;54.12
71344;BME280;59146;43.850;25.948;2023-03-19T07:25:03;101945.31;;;11.90;55.57
71344;BME280;59146;43.850;25.948;2023-03-19T07:27:28;101915.97;;;11.42;55.76
71344;BME280;59146;43.850;25.948;2023-03-19T07:29:54;101948.38;;;12.20;55.40
71344;BME280;59146;43.850;25.948;2023-03-19T07:32:20;101905.84;;;11.95;53.46
71344;BME280;59146;43.850;25.948;2023-03-19T07:34:46;101954.28;;;12.44;52.78
71344;BME280;59146;43.850;25.948;2023-03-19T07:37:12;101924.97;;;11.97;53.53
71344;BME280;59146;43.850;25.948;2023-03-19T07:39:37;101873.09;;;12.24;53.20
71344;BME280;59146;43.850;25.948;2023-03-19T07:42:03;101976.19;;;13.17;50.23
71344;BME280;59146;43.850;25.948;2023-03-19T07:44:29;101959.03;;;13.10;50.19
71344;BME280;59146;43.850;25.948;2023-03-19T07:46:54;101974.59;;;13.32;49.60
71344;BME280;59146;43.850;25.948;2023-03-19T07:49:20;101951.13;;;13.29;51.01
71344;BME280;59146;43.850;25.948;2023-03-19T07:51:46;101954.22;;;13.54;50.10
71344;BME280;59146;43.850;25.948;2023-03-19T07:54:11;101941.03;;;13.55;49.13
71344;BME280;59146;43.850;25.948;2023-03-19T07:56:37;101956.63;;;13.41;49.30
71344;BME280;59146;43.850;25.948;2023-03-19T07:59:02;101951.94;;;12.94;49.60
71344;BME280;59146;43.850;25.948;2023-03-19T08:01:27;101950.44;;;12.32;52.41
71344;BME280;59146;43.850;25.948;2023-03-19T08:03:53;101964.69;;;12.83;50.80
71344;BME280;59146;43.850;25.948;2023-03-19T08:06:18;101945.47;;;13.01;50.88
71344;BME280;59146;43.850;25.948;2023-03-19T08:08:44;101957.66;;;13.20;49.96
71344;BME280;59146;43.850;25.948;2023-03-19T08:11:10;101838.34;;;12.39;51.41
71344;BME280;59146;43.850;25.948;2023-03-19T08:13:35;101887.44;;;12.54;51.26
71344;BME280;59146;43.850;25.948;2023-03-19T08:16:01;101878.13;;;12.28;51.64
71344;BME280;59146;43.850;25.948;2023-03-19T08:18:26;101871.19;;;12.09;52.24
71344;BME280;59146;43.850;25.948;2023-03-19T08:20:52;101882.50;;;12.09;51.99
71344;BME280;59146;43.850;25.948;2023-03-19T08:23:18;101917.44;;;12.28;51.83
71344;BME280;59146;43.850;25.948;2023-03-19T08:25:43;101882.63;;;11.67;53.11
71344;BME280;59146;43.850;25.948;2023-03-19T08:28:09;101898.47;;;11.84;52.76
71344;BME280;59146;43.850;25.948;2023-03-19T08:30:36;101864.34;;;11.66;53.07
71344;BME280;59146;43.850;25.948;2023-03-19T08:33:02;101874.97;;;11.83;54.25
71344;BME280;59146;43.850;25.948;2023-03-19T08:35:28;101936.47;;;12.13;54.32
71344;BME280;59146;43.850;25.948;2023-03-19T08:37:54;101883.47;;;11.88;53.39
71344;BME280;59146;43.850;25.948;2023-03-19T08:40:20;101901.50;;;12.14;52.96
71344;BME280;59146;43.850;25.948;2023-03-19T08:42:46;101924.31;;;12.31;52.71
71344;BME280;59146;43.850;25.948;2023-03-19T08:45:12;101935.56;;;12.33;52.32
71344;BME280;59146;43.850;25.948;2023-03-19T08:47:39;101924.31;;;12.31;52.83
71344;BME280;59146;43.850;25.948;2023-03-19T08:50:06;101883.38;;;12.10;51.18
71344;BME280;59146;43.850;25.948;2023-03-19T08:52:32;101865.09;;;11.89;52.35
71344;BME280;59146;43.850;25.948;2023-03-19T08:54:57;101872.88;;;12.10;52.31
71344;BME280;59146;43.850;25.948;2023-03-19T08:57:23;101873.75;;;12.29;51.04
71344;BME280;59146;43.850;25.948;2023-03-19T08:59:48;101917.53;;;12.45;52.01
71344;BME280;59146;43.850;25.948;2023-03-19T09:02:14;101746.84;;;11.21;52.20
71344;BME280;59146;43.850;25.948;2023-03-19T09:04:42;101886.50;;;12.36;52.28
71344;BME280;59146;43.850;25.948;2023-03-19T09:07:08;101906.94;;;12.10;53.48
71344;BME280;59146;43.850;25.948;2023-03-19T09:09:37;101862.41;;;12.10;52.46
71344;BME280;59146;43.850;25.948;2023-03-19T09:12:03;101891.81;;;12.53;52.01
71344;BME280;59146;43.850;25.948;2023-03-19T09:14:28;101899.94;;;12.66;51.80
71344;BME280;59146;43.850;25.948;2023-03-19T09:16:54;101795.94;;;12.12;51.90
71344;BME280;59146;43.850;25.948;2023-03-19T09:19:19;101872.19;;;12.62;51.47
71344;BME280;59146;43.850;25.948;2023-03-19T09:21:45;101841.09;;;12.36;51.04
71344;BME280;59146;43.850;25.948;2023-03-19T09:24:10;101852.84;;;12.64;50.98
71344;BME280;59146;43.850;25.948;2023-03-19T09:26:36;101859.41;;;12.73;50.83
71344;BME280;59146;43.850;25.948;2023-03-19T09:29:01;101887.75;;;12.84;51.23
71344;BME280;59146;43.850;25.948;2023-03-19T09:31:27;101883.66;;;12.95;52.03
71344;BME280;59146;43.850;25.948;2023-03-19T09:33:53;101849.22;;;12.67;51.52
71344;BME280;59146;43.850;25.948;2023-03-19T09:36:18;101830.81;;;12.68;50.89
71344;BME280;59146;43.850;25.948;2023-03-19T09:38:44;101881.88;;;13.14;50.53
71344;BME280;59146;43.850;25.948;2023-03-19T09:41:26;101902.31;;;13.08;49.76
71344;BME280;59146;43.850;25.948;2023-03-19T09:46:40;101876.75;;;12.94;49.57
71344;BME280;59146;43.850;25.948;2023-03-19T09:49:32;101815.06;;;13.04;49.42
71344;BME280;59146;43.850;25.948;2023-03-19T09:54:44;101850.41;;;13.48;47.99
71344;BME280;59146;43.850;25.948;2023-03-19T09:57:11;101872.63;;;13.41;47.83
71344;BME280;59146;43.850;25.948;2023-03-19T09:59:38;101841.06;;;13.26;47.45
71344;BME280;59146;43.850;25.948;2023-03-19T10:15:34;101834.53;;;13.67;46.58
71344;BME280;59146;43.850;25.948;2023-03-19T10:18:08;101785.34;;;13.71;45.94
71344;BME280;59146;43.850;25.948;2023-03-19T10:25:54;101790.53;;;14.03;44.60
71344;BME280;59146;43.850;25.948;2023-03-19T10:28:21;101755.78;;;13.83;44.03
71344;BME280;59146;43.850;25.948;2023-03-19T10:36:46;101800.53;;;14.45;43.81
71344;BME280;59146;43.850;25.948;2023-03-19T10:39:15;101755.97;;;14.11;44.86
71344;BME280;59146;43.850;25.948;2023-03-19T10:44:47;101813.13;;;14.54;44.03
71344;BME280;59146;43.850;25.948;2023-03-19T10:47:15;101788.44;;;14.41;44.58
71344;BME280;59146;43.850;25.948;2023-03-19T10:49:42;101758.38;;;14.47;44.65
71344;BME280;59146;43.850;25.948;2023-03-19T10:52:27;101792.88;;;14.86;43.80
71344;BME280;59146;43.850;25.948;2023-03-19T10:54:56;101732.88;;;14.63;43.33
71344;BME280;59146;43.850;25.948;2023-03-19T10:57:27;101719.63;;;14.64;43.23
71344;BME280;59146;43.850;25.948;2023-03-19T10:59:53;101777.59;;;14.92;43.66
71344;BME280;59146;43.850;25.948;2023-03-19T11:02:24;101726.16;;;14.43;44.10
71344;BME280;59146;43.850;25.948;2023-03-19T11:05:06;101767.69;;;15.11;42.81
71344;BME280;59146;43.850;25.948;2023-03-19T11:07:34;101760.53;;;15.13;42.56
71344;BME280;59146;43.850;25.948;2023-03-19T11:10:00;101673.28;;;14.91;42.59
71344;BME280;59146;43.850;25.948;2023-03-19T11:12:31;101707.03;;;14.85;42.38
71344;BME280;59146;43.850;25.948;2023-03-19T11:14:58;101708.94;;;15.11;41.89
71344;BME280;59146;43.850;25.948;2023-03-19T11:20:18;101712.41;;;14.97;42.54
71344;BME280;59146;43.850;25.948;2023-03-19T11:22:43;101724.47;;;15.30;41.72
71344;BME280;59146;43.850;25.948;2023-03-19T11:25:28;101755.25;;;15.71;41.55
71344;BME280;59146;43.850;25.948;2023-03-19T11:28:17;101721.41;;;15.51;41.59
71344;BME280;59146;43.850;25.948;2023-03-19T11:30:52;101750.06;;;15.84;41.00
71344;BME280;59146;43.850;25.948;2023-03-19T11:39:29;101736.06;;;15.69;39.99
71344;BME280;59146;43.850;25.948;2023-03-19T11:50:25;101696.75;;;15.66;39.82
71344;BME280;59146;43.850;25.948;2023-03-19T11:55:50;101719.53;;;16.08;40.18
71344;BME280;59146;43.850;25.948;2023-03-19T11:58:40;101604.41;;;15.55;39.42
71344;BME280;59146;43.850;25.948;2023-03-19T12:22:03;101680.97;;;16.86;35.48
71344;BME280;59146;43.850;25.948;2023-03-19T12:24:47;101670.13;;;16.51;34.73
71344;BME280;59146;43.850;25.948;2023-03-19T12:27:46;101676.13;;;16.53;36.25
71344;BME280;59146;43.850;25.948;2023-03-19T12:35:42;101633.63;;;16.18;37.02
71344;BME280;59146;43.850;25.948;2023-03-19T12:38:21;101658.69;;;16.38;36.61
71344;BME280;59146;43.850;25.948;2023-03-19T12:45:53;101630.69;;;16.75;36.46
71344;BME280;59146;43.850;25.948;2023-03-19T12:48:24;101637.03;;;16.97;35.63
71344;BME280;59146;43.850;25.948;2023-03-19T12:50:55;101609.28;;;16.79;36.08
71344;BME280;59146;43.850;25.948;2023-03-19T12:53:42;101565.63;;;16.11;36.90
71344;BME280;59146;43.850;25.948;2023-03-19T12:57:20;101578.31;;;16.43;36.73
71344;BME280;59146;43.850;25.948;2023-03-19T13:02:19;101615.72;;;16.88;34.92
71344;BME280;59146;43.850;25.948;2023-03-19T13:04:55;101621.84;;;16.76;34.42
71344;BME280;59146;43.850;25.948;2023-03-19T13:07:28;101625.22;;;16.65;34.62
71344;BME280;59146;43.850;25.948;2023-03-19T13:10:07;101607.19;;;16.32;35.95
71344;BME280;59146;43.850;25.948;2023-03-19T13:12:36;101612.53;;;16.18;36.35
71344;BME280;59146;43.850;25.948;2023-03-19T13:20:31;101609.47;;;16.76;35.93
71344;BME280;59146;43.850;25.948;2023-03-19T13:23:03;101584.38;;;16.71;35.33
71344;BME280;59146;43.850;25.948;2023-03-19T13:25:37;101541.16;;;16.46;36.40
71344;BME280;59146;43.850;25.948;2023-03-19T13:28:11;101518.81;;;16.39;35.87
71344;BME280;59146;43.850;25.948;2023-03-19T13:30:37;101543.34;;;16.54;35.88
71344;BME280;59146;43.850;25.948;2023-03-19T13:33:12;101539.00;;;16.65;35.59
71344;BME280;59146;43.850;25.948;2023-03-19T13:35:50;101572.03;;;16.84;35.60
71344;BME280;59146;43.850;25.948;2023-03-19T13:38:24;101582.78;;;16.93;35.95
71344;BME280;59146;43.850;25.948;2023-03-19T13:46:02;101544.56;;;16.74;36.02
71344;BME280;59146;43.850;25.948;2023-03-19T13:50:59;101508.81;;;16.57;36.04
71344;BME280;59146;43.850;25.948;2023-03-19T13:55:57;101510.22;;;16.62;35.99
71344;BME280;59146;43.850;25.948;2023-03-19T13:58:29;101497.03;;;16.62;36.01
71344;BME280;59146;43.850;25.948;2023-03-19T14:06:44;101538.47;;;16.86;36.14
71344;BME280;59146;43.850;25.948;2023-03-19T14:09:36;101513.75;;;16.74;36.36
71344;BME280;59146;43.850;25.948;2023-03-19T14:14:47;101461.25;;;16.46;35.82
71344;BME280;59146;43.850;25.948;2023-03-19T14:17:15;101532.50;;;16.95;35.69
71344;BME280;59146;43.850;25.948;2023-03-19T14:19:43;101488.44;;;16.72;36.16
71344;BME280;59146;43.850;25.948;2023-03-19T14:22:19;101534.41;;;16.93;35.54
71344;BME280;59146;43.850;25.948;2023-03-19T14:25:02;101430.88;;;16.28;35.64
71344;BME280;59146;43.850;25.948;2023-03-19T14:27:30;101508.72;;;16.58;36.03
71344;BME280;59146;43.850;25.948;2023-03-19T14:29:58;101526.34;;;16.71;35.87
71344;BME280;59146;43.850;25.948;2023-03-19T14:32:32;101453.66;;;16.29;36.46
71344;BME280;59146;43.850;25.948;2023-03-19T14:34:58;101467.56;;;16.31;37.08
71344;BME280;59146;43.850;25.948;2023-03-19T14:37:32;101482.34;;;16.33;38.29
71344;BME280;59146;43.850;25.948;2023-03-19T14:40:13;101486.34;;;16.26;36.65